KWJF/WJF METAR and TAF weather

Enter ICAO airport designator
Station Type Date Time Source
KWJF METAR 2021/02/27 03:56 UTC NOAA

KWJF 270356Z 22020KT 10SM CLR 12/M07 A2996 RMK AO2 SLP154 T01221072


Station Type Date Time Source
KWJF Decoded METAR 2021/02/27 03:56 UTC NOAA

LANCASTER FOX AIRFIELD, CA, United States (KWJF) 34-44N 118-13W
Feb 26, 2021 - 10:56 PM EST / 2021.02.27 0356 UTC
Wind: from the SW (220 degrees) at 23 MPH (20 KT):0
Visibility: 10 mile(s):0
Sky conditions: clear
Temperature: 54.0 F (12.2 C)
Dew Point: 19.0 F (-7.2 C)
Relative Humidity: 25%
Pressure (altimeter): 29.96 in. Hg (1014 hPa)
ob: KWJF 270356Z 22020KT 10SM CLR 12/M07 A2996 RMK AO2 SLP154 T01221072
cycle: 4

Station Type Date Time Source
KWJF TAF 2021/02/27 02:12 UTC NOAA

TAF
AMD KWJF 270209Z 2702/2724 27021G29KT P6SM SKC
FM270400 27014G24KT P6SM SKC
FM270600 27015G21KT P6SM SKC
FM271000 26012KT P6SM SKC
FM271700 32012KT P6SM SKC

Example: see airport list